Honolulu, HI (96821)

12:38 PM HST on August 04, 2015 (GMT -1000)
Hawaii Loa Ridge | | Change Station
CLOSE
Current Station
Personal Weather Station
Location: Honolulu, HI
Elevation: 750 ft
Nearby Weather Stations

Elev 750 ft 21.29 °N, 157.75 °W | Updated 3 minutes ago

Scattered Clouds
Scattered Clouds
82.9 °F
Feels Like 87 °F
N
9.0
Wind Variable Wind from NE
Gusts 16.0 mph

Today
High -- | Low -- °F
--% Chance of Precip.
Yesterday
High -- | Low -- °F
Precip. -- in
6:05 AM 7:08 PM
Waning Gibbous, 74% visible
Pressure 29.86 in
Visibility 10.0 miles
Clouds Few 2700 ft
Scattered Clouds 3900 ft
Scattered Clouds 6000 ft
Heat Index 87 °F
Dew Point 70 °F
Humidity 65%
Rainfall 0.00 in
Snow Depth Not available.
UV 10 out of 12
Pollen Not available.
Air Quality Not available.
Flu Activity Not available.
METAR PHNL 042153Z 08009KT 10SM FEW027 SCT039 SCT060 32/21 A2986 RMK AO2 SLP111 T03170206 $

More Conditions Fewer Conditions

Pressure 29.86 in
Visibility 10.0 miles
Clouds Few 2700 ft
Scattered Clouds 3900 ft
Scattered Clouds 6000 ft
Heat Index 87 °F
Dew Point 70 °F
Humidity 65%
Rainfall 0.00 in
Snow Depth Not available.
UV 10 out of 12
Pollen Not available.
Air Quality Not available.
Flu Activity Not available.
METAR PHNL 042153Z 08009KT 10SM FEW027 SCT039 SCT060 32/21 A2986 RMK AO2 SLP111 T03170206 $

More Conditions Fewer Conditions

10-Day Weather Forecast

×

Almanac

Astronomy

Aug. 04, 2015 Rise Set
Actual Time
Civil Twilight
Nautical Twilight
Astronomical Twilight
Moon
Length of Visible Light
Length of Day
Tomorrow will be .
, % of the Moon is Illuminated

Today's Extremes

State Highs State Lows

Community

WunderPhotos

Upload Photos

1,844,007 photos uploaded!

WunderBlogs® & News

Nearby

Air Quality

  Air Quality AQ Index Pollutant
Not available.

Snow Depth

Station Depth Elevation

Earthquake Activity

City Distance Mag. Time & Date
Minimum magnitude displayed is 2.5.

Coastal Water Temperatures

Place Temperature

Stations

Nearby Weather Stations

Station Location Temp. Windchill Dew Point Humidity Wind Precip. Elev Updated Type